createdAt,value
2023-06-14T00:00:51.062Z,16.64
2023-06-14T00:03:23.965Z,16.65
2023-06-14T00:05:54.247Z,16.66
2023-06-14T00:08:24.042Z,16.59
2023-06-14T00:10:52.816Z,16.61
2023-06-14T00:13:21.550Z,16.35
2023-06-14T00:15:51.000Z,16.47
2023-06-14T00:18:19.616Z,16.70
2023-06-14T00:20:48.344Z,16.83
2023-06-14T00:23:17.572Z,16.93
2023-06-14T00:25:46.449Z,16.84
2023-06-14T00:28:15.322Z,16.90
2023-06-14T00:30:45.283Z,16.97
2023-06-14T00:33:14.614Z,17.05
2023-06-14T00:35:48.618Z,16.95
2023-06-14T00:38:17.421Z,17.00
2023-06-14T00:40:46.197Z,17.05
2023-06-14T00:43:14.934Z,16.99
2023-06-14T00:45:43.620Z,17.08
2023-06-14T00:48:14.327Z,17.06
2023-06-14T00:50:45.247Z,16.93
2023-06-14T00:53:19.969Z,16.91
2023-06-14T00:55:54.683Z,16.96
2023-06-14T00:58:24.905Z,16.86
2023-06-14T01:00:53.678Z,16.92
2023-06-14T01:03:24.147Z,16.77
2023-06-14T01:05:57.885Z,16.73
2023-06-14T01:08:29.605Z,16.74
2023-06-14T01:11:16.394Z,16.69
2023-06-14T01:13:48.301Z,16.61
2023-06-14T01:16:17.283Z,16.64
2023-06-14T01:18:48.975Z,16.70
2023-06-14T01:21:29.640Z,16.75
2023-06-14T01:23:58.469Z,16.66
2023-06-14T01:26:29.541Z,16.78
2023-06-14T01:28:59.790Z,16.83
2023-06-14T01:31:30.742Z,16.83
2023-06-14T01:33:59.528Z,16.90
2023-06-14T01:36:29.851Z,16.94
2023-06-14T01:39:00.780Z,16.95
2023-06-14T01:41:31.724Z,16.88
2023-06-14T01:44:01.790Z,16.89
2023-06-14T01:46:30.573Z,16.80
2023-06-14T01:48:59.504Z,16.73
2023-06-14T01:51:28.194Z,16.61
2023-06-14T01:53:56.876Z,16.55
2023-06-14T01:56:25.653Z,16.53
2023-06-14T01:58:55.157Z,16.50
2023-06-14T02:01:24.649Z,16.40
2023-06-14T02:03:54.913Z,16.38
2023-06-14T02:06:23.630Z,16.26
2023-06-14T02:08:54.906Z,16.18
2023-06-14T02:11:23.641Z,16.06
2023-06-14T02:13:52.309Z,16.11
2023-06-14T02:16:20.995Z,16.04
2023-06-14T02:18:51.674Z,16.08
2023-06-14T02:21:20.377Z,16.08
2023-06-14T02:23:49.110Z,16.19
2023-06-14T02:26:18.480Z,16.22
2023-06-14T02:28:47.068Z,16.08
2023-06-14T02:31:16.003Z,15.88
2023-06-14T02:33:44.757Z,16.26
2023-06-14T02:36:13.591Z,16.29
2023-06-14T02:38:42.366Z,16.46
2023-06-14T02:41:11.331Z,16.38
2023-06-14T02:43:40.397Z,16.17
2023-06-14T02:46:09.098Z,16.00
2023-06-14T02:48:39.259Z,15.87
2023-06-14T02:51:09.632Z,15.82
2023-06-14T02:53:38.790Z,15.79
2023-06-14T02:56:07.640Z,15.67
2023-06-14T02:58:36.409Z,15.74
2023-06-14T03:01:06.801Z,15.65
2023-06-14T03:03:35.955Z,15.74
2023-06-14T03:06:06.044Z,15.75
2023-06-14T03:08:36.408Z,15.83
2023-06-14T03:11:06.142Z,15.75
2023-06-14T03:13:40.785Z,15.80
2023-06-14T03:16:11.263Z,15.79
2023-06-14T03:18:40.061Z,15.76
2023-06-14T03:21:10.181Z,15.75
2023-06-14T03:23:39.080Z,15.79
2023-06-14T03:26:07.775Z,15.91
2023-06-14T03:28:36.426Z,15.93
2023-06-14T03:31:05.133Z,16.20
2023-06-14T03:33:33.931Z,16.22
2023-06-14T03:36:04.246Z,16.38
2023-06-14T03:38:34.227Z,16.56
2023-06-14T03:41:03.138Z,16.52
2023-06-14T03:43:31.965Z,16.39
2023-06-14T03:46:00.912Z,16.56
2023-06-14T03:48:29.858Z,16.92
2023-06-14T03:51:01.427Z,16.95
2023-06-14T03:53:30.864Z,16.92
2023-06-14T03:56:01.259Z,16.92
2023-06-14T03:58:30.340Z,16.82
2023-06-14T04:00:59.031Z,16.81
2023-06-14T04:03:29.449Z,17.00
2023-06-14T04:05:59.879Z,16.81
2023-06-14T04:08:28.771Z,17.00
2023-06-14T04:10:57.425Z,16.83
2023-06-14T04:13:26.231Z,16.83
2023-06-14T04:15:55.191Z,17.19
2023-06-14T04:18:25.730Z,17.40
2023-06-14T04:20:54.705Z,17.60
2023-06-14T04:23:23.494Z,17.87
2023-06-14T04:25:52.212Z,17.74
2023-06-14T04:28:27.831Z,17.87
2023-06-14T04:30:58.782Z,18.07
2023-06-14T04:33:33.249Z,17.96
2023-06-14T04:36:06.889Z,17.98
2023-06-14T04:38:36.068Z,18.16
2023-06-14T04:41:04.925Z,18.43
2023-06-14T04:43:36.274Z,18.48
2023-06-14T04:46:06.810Z,18.76
2023-06-14T04:48:36.245Z,18.79
2023-06-14T04:51:06.714Z,18.88
2023-06-14T04:53:35.388Z,19.22
2023-06-14T04:56:05.288Z,19.34
2023-06-14T04:58:38.720Z,19.33
2023-06-14T05:01:09.135Z,19.44
2023-06-14T05:03:37.852Z,19.72
2023-06-14T05:06:07.326Z,20.03
2023-06-14T05:08:38.417Z,20.04
2023-06-14T05:11:07.248Z,20.19
2023-06-14T05:13:36.681Z,20.36
2023-06-14T05:16:05.625Z,20.55
2023-06-14T05:18:35.895Z,20.79
2023-06-14T05:21:05.963Z,21.04
2023-06-14T05:23:38.122Z,20.75
2023-06-14T05:26:08.567Z,20.97
2023-06-14T05:28:38.903Z,21.00
2023-06-14T05:34:47.669Z,20.81
2023-06-14T05:37:16.979Z,21.13
2023-06-14T05:39:49.644Z,20.46
2023-06-14T05:42:20.042Z,19.68
2023-06-14T05:44:48.856Z,20.28
2023-06-14T05:47:20.049Z,20.63
2023-06-14T05:49:51.329Z,20.80
2023-06-14T05:52:23.066Z,21.04
2023-06-14T05:54:57.720Z,21.04
2023-06-14T05:57:26.533Z,21.13
2023-06-14T06:00:12.584Z,21.19
2023-06-14T06:02:52.695Z,21.23
2023-06-14T06:08:28.529Z,21.48
2023-06-14T06:10:58.037Z,21.90
2023-06-14T06:13:29.165Z,21.80
2023-06-14T06:15:57.621Z,21.54
2023-06-14T06:18:28.430Z,20.64
2023-06-14T06:20:57.231Z,21.47
2023-06-14T06:23:26.039Z,21.64
2023-06-14T06:25:54.801Z,21.69
2023-06-14T06:28:23.529Z,21.14
2023-06-14T06:30:52.396Z,21.09
2023-06-14T06:33:21.135Z,20.75
2023-06-14T06:35:51.525Z,20.80
2023-06-14T06:38:22.233Z,21.03
2023-06-14T06:40:51.701Z,21.30
2023-06-14T06:43:27.020Z,21.01
2023-06-14T06:45:57.890Z,21.09
2023-06-14T06:48:30.252Z,21.33
2023-06-14T06:50:58.897Z,21.67
2023-06-14T06:53:40.568Z,21.51
2023-06-14T06:56:01.282Z,22.00
2023-06-14T06:58:33.759Z,22.23
2023-06-14T07:01:02.551Z,22.57
2023-06-14T07:03:34.154Z,22.45
2023-06-14T07:06:03.110Z,22.49
2023-06-14T07:08:32.013Z,22.37
2023-06-14T07:11:00.716Z,22.25
2023-06-14T07:13:29.574Z,21.83
2023-06-14T07:16:02.780Z,21.46
2023-06-14T07:18:31.784Z,21.90
2023-06-14T07:21:02.126Z,22.41
2023-06-14T07:23:31.037Z,21.89
2023-06-14T07:26:02.621Z,22.60
2023-06-14T07:28:31.531Z,23.02
2023-06-14T07:31:00.235Z,22.96
2023-06-14T07:33:29.028Z,22.01
2023-06-14T07:35:59.545Z,22.23
2023-06-14T07:38:28.311Z,22.54
2023-06-14T07:40:57.301Z,22.93
2023-06-14T07:43:29.254Z,22.94
2023-06-14T07:46:07.397Z,23.37
2023-06-14T07:48:31.190Z,23.17
2023-06-14T07:51:00.272Z,22.86
2023-06-14T07:53:30.266Z,23.16
2023-06-14T07:56:01.158Z,23.55
2023-06-14T07:58:29.815Z,23.55
2023-06-14T08:00:58.444Z,24.00
2023-06-14T08:03:27.872Z,24.62
2023-06-14T08:05:57.278Z,24.53
2023-06-14T08:08:26.276Z,24.32
2023-06-14T08:10:58.118Z,24.87
2023-06-14T08:13:27.221Z,25.20
2023-06-14T08:15:57.737Z,25.61
2023-06-14T08:18:28.561Z,25.34
2023-06-14T08:20:58.960Z,24.91
2023-06-14T08:23:32.423Z,24.72
2023-06-14T08:26:08.933Z,24.34
2023-06-14T08:28:37.780Z,23.55
2023-06-14T08:31:12.414Z,24.10
2023-06-14T08:33:44.822Z,24.62
2023-06-14T08:36:14.015Z,23.97
2023-06-14T08:38:43.095Z,25.12
2023-06-14T08:41:17.302Z,25.23
2023-06-14T08:43:46.523Z,25.10
2023-06-14T08:46:19.021Z,25.47
2023-06-14T08:48:51.068Z,25.37
2023-06-14T08:51:23.745Z,24.47
2023-06-14T08:54:00.194Z,24.34
2023-06-14T08:56:30.769Z,24.85
2023-06-14T08:59:05.039Z,24.41
2023-06-14T09:01:35.985Z,24.59
2023-06-14T09:04:07.007Z,24.41
2023-06-14T09:06:37.574Z,24.48
2023-06-14T09:09:06.387Z,24.18
2023-06-14T09:11:35.139Z,24.29
2023-06-14T09:14:04.249Z,24.59
2023-06-14T09:16:35.099Z,24.05
2023-06-14T09:19:03.882Z,23.79
2023-06-14T09:21:38.495Z,23.86
2023-06-14T09:24:08.089Z,24.34
2023-06-14T09:26:44.429Z,24.08
2023-06-14T09:29:16.225Z,23.88
2023-06-14T09:31:46.820Z,23.62
2023-06-14T09:34:19.209Z,24.17
2023-06-14T09:36:49.167Z,24.77
2023-06-14T09:39:44.282Z,25.90
2023-06-14T09:42:21.361Z,26.42
2023-06-14T09:45:03.740Z,26.57
2023-06-14T09:50:26.482Z,26.68
2023-06-14T09:52:58.730Z,26.37
2023-06-14T09:55:30.112Z,26.39
2023-06-14T09:58:02.826Z,25.82
2023-06-14T10:00:33.691Z,24.86
2023-06-14T10:03:11.095Z,23.83
2023-06-14T10:05:41.531Z,24.28
2023-06-14T10:08:21.123Z,24.43
2023-06-14T10:10:50.235Z,24.57
2023-06-14T10:13:20.043Z,24.67
2023-06-14T10:16:13.459Z,24.27
2023-06-14T10:19:13.995Z,24.93
2023-06-14T10:22:06.976Z,25.68
2023-06-14T10:24:47.273Z,25.77
2023-06-14T10:27:25.586Z,25.68
2023-06-14T10:30:13.647Z,25.59
2023-06-14T10:33:04.039Z,24.82
2023-06-14T10:39:03.902Z,25.19
2023-06-14T10:41:54.867Z,25.36
2023-06-14T10:44:26.761Z,25.59
2023-06-14T10:46:57.359Z,25.64
2023-06-14T10:49:44.528Z,25.67
2023-06-14T10:52:21.658Z,25.25
2023-06-14T10:55:20.777Z,25.48
2023-06-14T10:58:00.066Z,25.99
2023-06-14T11:00:34.540Z,26.29
2023-06-14T11:03:39.911Z,26.71
2023-06-14T11:06:15.937Z,26.67
2023-06-14T11:08:54.635Z,26.38
2023-06-14T11:11:28.419Z,26.75
2023-06-14T11:13:57.320Z,27.42
2023-06-14T11:16:29.388Z,27.13
2023-06-14T11:18:58.237Z,26.81
2023-06-14T11:21:28.631Z,26.55
2023-06-14T11:23:57.625Z,26.62
2023-06-14T11:26:36.698Z,26.35
2023-06-14T11:29:07.355Z,26.44
2023-06-14T11:31:36.508Z,25.68
2023-06-14T11:34:07.691Z,25.86
2023-06-14T11:36:39.651Z,26.03
2023-06-14T11:39:10.027Z,25.89
2023-06-14T11:41:51.234Z,25.89
2023-06-14T11:44:20.130Z,25.46
2023-06-14T11:46:49.356Z,25.61
2023-06-14T11:49:18.315Z,25.47
2023-06-14T11:51:50.810Z,25.50
2023-06-14T11:54:19.721Z,26.16
2023-06-14T11:56:48.689Z,26.18
2023-06-14T11:59:21.155Z,25.91
2023-06-14T12:01:53.150Z,26.44
2023-06-14T12:04:32.729Z,26.19
2023-06-14T12:07:15.161Z,26.07
2023-06-14T12:10:04.336Z,25.96
2023-06-14T12:12:34.865Z,26.57
2023-06-14T12:15:07.517Z,26.83
2023-06-14T12:17:44.983Z,26.36
2023-06-14T12:20:21.401Z,26.19
2023-06-14T12:22:58.486Z,26.19
2023-06-14T12:25:31.990Z,26.31
2023-06-14T12:28:35.505Z,26.14
2023-06-14T12:31:04.799Z,26.57
2023-06-14T12:33:33.681Z,26.65
2023-06-14T12:36:03.953Z,26.51
2023-06-14T12:38:35.738Z,26.57
2023-06-14T12:41:04.861Z,26.70
2023-06-14T12:43:33.723Z,26.68
2023-06-14T12:46:04.027Z,26.76
2023-06-14T12:48:35.499Z,26.80
2023-06-14T12:51:04.233Z,26.97
2023-06-14T12:53:33.160Z,27.31
2023-06-14T12:56:01.863Z,27.36
2023-06-14T12:58:30.692Z,26.93
2023-06-14T13:01:01.287Z,26.86
2023-06-14T13:03:32.425Z,26.83
2023-06-14T13:06:04.792Z,26.55
2023-06-14T13:08:33.645Z,26.59
2023-06-14T13:11:02.357Z,26.95
2023-06-14T13:13:31.219Z,27.53
2023-06-14T13:15:59.946Z,27.90
2023-06-14T13:18:28.690Z,27.99
2023-06-14T13:20:57.579Z,27.91
2023-06-14T13:23:28.971Z,27.95
2023-06-14T13:25:57.727Z,27.39
2023-06-14T13:28:28.059Z,25.35
2023-06-14T13:30:57.046Z,24.59
2023-06-14T13:33:28.765Z,24.28
2023-06-14T13:35:57.697Z,23.68
2023-06-14T13:38:29.653Z,23.15
2023-06-14T13:41:05.020Z,22.07
2023-06-14T13:43:33.803Z,21.53
2023-06-14T13:46:04.232Z,21.32
2023-06-14T13:48:34.530Z,20.85
2023-06-14T13:51:08.249Z,20.63
2023-06-14T13:53:40.894Z,20.32
2023-06-14T13:56:09.245Z,20.27
2023-06-14T13:58:39.592Z,20.28
2023-06-14T14:01:08.802Z,20.43
2023-06-14T14:03:40.513Z,20.54
2023-06-14T14:06:09.273Z,20.99
2023-06-14T14:08:38.140Z,21.16
2023-06-14T14:11:08.720Z,21.43
2023-06-14T14:13:38.936Z,21.63
2023-06-14T14:16:08.256Z,21.39
2023-06-14T14:18:40.348Z,21.35
2023-06-14T14:21:10.879Z,21.43
2023-06-14T14:23:41.904Z,21.52
2023-06-14T14:26:10.142Z,21.47
2023-06-14T14:28:38.919Z,21.58
2023-06-14T14:31:07.794Z,21.52
2023-06-14T14:33:36.560Z,21.49
2023-06-14T14:36:07.476Z,21.33
2023-06-14T14:38:40.589Z,21.49
2023-06-14T14:41:09.749Z,21.67
2023-06-14T14:43:39.598Z,21.91
2023-06-14T14:46:08.310Z,21.95
2023-06-14T14:48:46.600Z,21.99
2023-06-14T14:51:18.061Z,21.95
2023-06-14T14:53:46.840Z,22.20
2023-06-14T14:56:15.711Z,22.32
2023-06-14T14:58:45.237Z,23.02
2023-06-14T15:01:17.096Z,23.52
2023-06-14T15:03:58.530Z,23.51
2023-06-14T15:06:16.528Z,23.18
2023-06-14T15:08:45.759Z,22.89
2023-06-14T15:11:14.567Z,22.51
2023-06-14T15:13:43.235Z,22.31
2023-06-14T15:16:13.027Z,22.14
2023-06-14T15:18:42.108Z,21.73
2023-06-14T15:21:10.884Z,21.65
2023-06-14T15:23:39.708Z,21.55
2023-06-14T15:26:09.642Z,21.47
2023-06-14T15:28:38.337Z,21.37
2023-06-14T15:31:07.793Z,21.01
2023-06-14T15:33:36.704Z,21.14
2023-06-14T15:36:06.092Z,21.14
2023-06-14T15:38:35.048Z,20.92
2023-06-14T15:41:05.448Z,20.96
2023-06-14T15:49:39.118Z,20.74
2023-06-14T15:52:08.498Z,20.79
2023-06-14T15:54:37.342Z,20.78
2023-06-14T15:57:07.275Z,20.56
2023-06-14T15:59:37.799Z,20.51
2023-06-14T16:02:06.836Z,20.48
2023-06-14T16:04:35.803Z,20.61
2023-06-14T16:07:06.446Z,20.57
2023-06-14T16:09:35.149Z,20.70
2023-06-14T16:12:05.893Z,20.81
2023-06-14T16:14:34.628Z,20.86
2023-06-14T16:17:04.548Z,20.95
2023-06-14T16:19:33.615Z,21.04
2023-06-14T16:22:03.379Z,21.35
2023-06-14T16:24:34.944Z,21.49
2023-06-14T16:27:06.244Z,21.50
2023-06-14T16:29:35.364Z,21.35
2023-06-14T16:32:08.342Z,21.68
2023-06-14T16:34:42.867Z,21.24
2023-06-14T16:37:11.532Z,21.10
2023-06-14T16:39:40.203Z,21.06
2023-06-14T16:42:09.245Z,20.92
2023-06-14T16:44:40.043Z,20.78
2023-06-14T16:47:11.423Z,20.54
2023-06-14T16:49:40.410Z,20.28
2023-06-14T16:52:10.063Z,20.47
2023-06-14T16:54:40.044Z,20.44
2023-06-14T16:57:12.023Z,20.49
2023-06-14T16:59:41.231Z,20.55
2023-06-14T17:02:10.570Z,20.52
2023-06-14T17:04:39.565Z,20.52
2023-06-14T17:07:08.829Z,20.58
2023-06-14T17:09:37.601Z,20.40
2023-06-14T17:15:27.632Z,20.34
2023-06-14T17:17:58.096Z,20.23
2023-06-14T17:20:28.617Z,20.12
2023-06-14T17:22:58.927Z,19.89
2023-06-14T17:25:27.854Z,19.89
2023-06-14T17:27:57.266Z,19.80
2023-06-14T17:30:26.378Z,19.70
2023-06-14T17:33:00.347Z,19.67
2023-06-14T17:35:29.077Z,19.74
2023-06-14T17:37:58.136Z,19.66
2023-06-14T17:40:49.050Z,19.72
2023-06-14T17:43:23.196Z,19.72
2023-06-14T17:45:57.587Z,19.56
2023-06-14T17:48:32.743Z,19.38
2023-06-14T17:51:04.975Z,19.58
2023-06-14T17:53:36.562Z,19.54
2023-06-14T17:56:07.598Z,19.51
2023-06-14T17:58:38.507Z,19.52
2023-06-14T18:01:18.695Z,19.53
2023-06-14T18:03:47.659Z,19.56
2023-06-14T18:06:18.584Z,19.48
2023-06-14T18:08:49.594Z,19.50
2023-06-14T18:11:21.417Z,19.56
2023-06-14T18:13:54.905Z,19.48
2023-06-14T18:16:26.727Z,19.57
2023-06-14T18:19:01.949Z,19.63
2023-06-14T18:25:04.609Z,19.56
2023-06-14T18:33:39.548Z,19.48
2023-06-14T18:36:08.329Z,19.52
2023-06-14T18:39:00.153Z,19.44
2023-06-14T18:41:55.621Z,19.36
2023-06-14T18:47:04.469Z,19.47
2023-06-14T18:49:44.000Z,19.36
2023-06-14T18:55:39.280Z,19.33
2023-06-14T18:58:33.545Z,19.26
2023-06-14T19:01:11.591Z,19.34
2023-06-14T19:03:58.098Z,19.32
2023-06-14T19:06:27.162Z,19.26
2023-06-14T19:09:02.038Z,19.32
2023-06-14T19:11:32.897Z,19.30
2023-06-14T19:20:32.611Z,19.07
2023-06-14T19:26:23.989Z,18.76
2023-06-14T19:32:04.623Z,18.79
2023-06-14T19:34:38.227Z,18.80
2023-06-14T19:37:10.141Z,18.76
2023-06-14T19:39:45.478Z,18.82
2023-06-14T19:42:16.527Z,18.80
2023-06-14T19:47:49.735Z,18.81
2023-06-14T19:50:29.328Z,18.93
2023-06-14T20:05:09.577Z,18.69
2023-06-14T20:07:40.370Z,18.65
2023-06-14T20:10:28.166Z,18.53
2023-06-14T20:19:07.990Z,18.25
2023-06-14T20:21:53.189Z,18.08
2023-06-14T20:24:44.403Z,17.41
2023-06-14T20:30:29.630Z,17.76
2023-06-14T20:33:18.878Z,17.68
2023-06-14T20:36:01.484Z,17.72
2023-06-14T20:38:31.632Z,17.75
2023-06-14T20:41:10.130Z,17.72
2023-06-14T20:43:47.721Z,17.68
2023-06-14T20:46:18.308Z,17.68
2023-06-14T20:48:55.516Z,17.66
2023-06-14T20:51:35.341Z,17.54
2023-06-14T20:54:26.145Z,17.44
2023-06-14T20:57:21.055Z,17.39
2023-06-14T20:59:53.406Z,17.32
2023-06-14T21:02:37.875Z,17.39
2023-06-14T21:05:13.294Z,17.52
2023-06-14T21:07:46.247Z,17.47
2023-06-14T21:10:19.635Z,17.55
2023-06-14T21:12:59.581Z,17.33
2023-06-14T21:15:30.793Z,17.36
2023-06-14T21:18:05.258Z,17.29
2023-06-14T21:20:41.455Z,17.23
2023-06-14T21:23:11.074Z,16.94
2023-06-14T21:25:42.731Z,16.73
2023-06-14T21:28:11.485Z,16.77
2023-06-14T21:30:40.347Z,16.93
2023-06-14T21:33:09.073Z,17.08
2023-06-14T21:35:37.863Z,17.11
2023-06-14T21:38:09.041Z,17.14
2023-06-14T21:40:37.744Z,17.19
2023-06-14T21:43:06.457Z,17.35
2023-06-14T21:45:56.578Z,17.35
2023-06-14T21:48:22.470Z,17.39
2023-06-14T21:50:56.786Z,17.39
2023-06-14T21:53:34.944Z,17.22
2023-06-14T21:56:08.761Z,17.27
2023-06-14T21:58:39.102Z,17.23
2023-06-14T22:06:55.941Z,17.29
2023-06-14T22:09:26.454Z,17.15
2023-06-14T22:11:59.135Z,17.12
2023-06-14T22:14:33.159Z,17.18
2023-06-14T22:17:04.067Z,17.20
2023-06-14T22:19:34.622Z,17.19
2023-06-14T22:22:03.648Z,17.17
2023-06-14T22:24:33.684Z,17.16
2023-06-14T22:27:02.489Z,17.09
2023-06-14T22:29:31.211Z,17.00
2023-06-14T22:32:01.948Z,17.15
2023-06-14T22:34:32.350Z,17.09
2023-06-14T22:37:02.792Z,17.16
2023-06-14T22:39:31.471Z,17.17
2023-06-14T22:42:08.277Z,17.03
2023-06-14T22:44:38.277Z,17.09
2023-06-14T22:47:09.119Z,17.14
2023-06-14T22:49:39.829Z,17.19
2023-06-14T22:52:10.509Z,16.88
2023-06-14T22:54:39.304Z,17.13
2023-06-14T22:57:08.993Z,17.19
2023-06-14T22:59:38.596Z,17.25
2023-06-14T23:02:07.463Z,17.45
2023-06-14T23:04:36.290Z,17.29
2023-06-14T23:07:06.288Z,17.30
2023-06-14T23:09:36.606Z,17.14
2023-06-14T23:12:05.771Z,17.09
2023-06-14T23:14:34.697Z,17.15
2023-06-14T23:17:05.341Z,17.21
2023-06-14T23:19:36.760Z,17.26
2023-06-14T23:22:08.617Z,17.23
2023-06-14T23:24:38.391Z,17.18
2023-06-14T23:27:07.790Z,17.23
2023-06-14T23:29:36.953Z,17.04
2023-06-14T23:32:08.628Z,17.26
2023-06-14T23:34:37.474Z,17.38
2023-06-14T23:37:08.074Z,17.30
2023-06-14T23:39:38.367Z,17.18
2023-06-14T23:42:10.979Z,17.32
2023-06-14T23:44:41.305Z,17.30
2023-06-14T23:47:10.177Z,17.19
2023-06-14T23:49:38.874Z,17.07
2023-06-14T23:52:10.958Z,16.95
2023-06-14T23:54:40.705Z,17.03
2023-06-14T23:57:09.559Z,17.12
2023-06-14T23:59:39.481Z,16.98
